Tiempo atmosférico en la estación meteorológica de Caldes De Montbui, Barcelona (168 m.)



Fecha
DESCASC
Temp. máxima en grados centígrados (hora)
DESCASC
Temp. mínima en grados centígrados (hora)
DESCASC
Temp. media en grados centígrados
DESCASC
Racha de viento máxima en m/sg (hora)
DESCASC
Velocidad máxima media en intervalos de 10 minutos(hora)
DESCASC
Precipitaciones diarias en mm
DESCASC
Precipitaciones de 00:00 a 06:00 en mm
DESCASC
Precipitaciones de 06:00 a 12:00 en mm
DESCASC
Precipitaciones de 12:00 a 18:00 en mm
DESCASC
Precipitaciones de 18:00 a 24:00 en mm
DESCASC
16-01-2020 15.2 (14:50) -0.2 (08:10) 7.5 5.28 (14:20) 3.61 (14:30) 0 0 0 0 0
15-01-2020 14.6 (15:40) -0.4 (08:00) 7.1 6.39 (15:00) 3.89 (15:00) 0.2 0 0.2 0 0
14-01-2020 16.2 (16:00) -1.2 (08:30) 7.5 5 (16:50) 3.06 (23:20) -- -- -- 0 0
13-01-2020 11.7 (15:00) -2.4 (08:30) 4.6 3.89 (16:00) 2.78 (21:30) -- -- -- -- --
12-01-2020 13.6 (15:10) -1.7 (-00:0) 6 3.33 (12:20) 2.78 (12:20) -- -- -- -- --
11-01-2020 12.1 (15:20) 0.2 (00:00) 6.2 3.89 (19:30) 3.33 (19:10) -- -- -- -- --
10-01-2020 12.9 (16:40) 3.5 (00:00) 8.2 6.94 (09:40) 5 (11:00) -- -- -- -- --
09-01-2020 14.4 (15:50) 0.8 (00:00) 7.6 5.83 (14:10) 4.17 (14:20) 0 0 0 0 0
08-01-2020 15.9 (15:30) 0.5 (00:00) 8.2 4.17 (19:50) 3.33 (21:40) 0 0 0 0 0
07-01-2020 15.2 (14:50) -0.1 (00:00) 7.5 4.17 (00:30) 2.78 (00:30) 0 0 0 0 0
06-01-2020 14.8 (15:40) 0.2 (00:00) 7.5 5 (23:30) 3.33 (21:30) 0 0 0 0 0
05-01-2020 15.4 (15:30) -1.5 (-00:0) 6.9 4.72 (21:40) 3.61 (21:40) 0 0 0 0 0
04-01-2020 14.6 (16:00) -1 (-00:0) 6.8 5 (17:00) 3.61 (17:00) 0 0 0 0 0
03-01-2020 11.7 (14:10) -0.2 (00:00) 5.7 2.5 (01:00) 1.67 (15:00) 0 0 0 0 0
02-01-2020 12.1 (15:00) -0.9 (-00:0) 5.6 8.61 (13:50) 4.72 (13:50) 0 0 0 0 0
01-01-2020 13 (15:30) -0.6 (-00:0) 6.2 4.17 (13:50) 2.22 (15:00) 0 0 0 0 0
31-12-2019 13.3 (13:20) 1.5 (00:00) 7.4 6.11 (15:00) 3.89 (15:00) 0 0 0 0 0
30-12-2019 14.4 (15:40) 3.7 (00:00) 9 5.83 (15:10) 3.89 (14:50) 0 0 0 0 0
29-12-2019 14.6 (14:20) 7.7 (00:00) 11.2 5 (15:20) 3.06 (16:00) 0 0 0 0 0
28-12-2019 15.2 (15:20) 0.7 (00:00) 7.9 4.17 (14:30) 2.78 (14:30) 0 0 0 0 0
27-12-2019 15.1 (15:40) 2.1 (00:00) 8.6 3.33 (23:20) 2.5 (23:30) 0 0 0 0 0
26-12-2019 16.8 (13:40) 4.4 (00:00) 10.6 3.61 (23:20) 2.5 (23:20) 0 0 0 0 0
25-12-2019 18.7 (15:30) 3.5 (00:00) 11.1 3.61 (22:30) 2.5 (22:10) 0 0 0 0 0
24-12-2019 17.9 (14:20) 3.5 (00:00) 10.7 8.89 (11:40) 5.83 (11:40) 0 0 0 0 0
23-12-2019 14.8 (13:00) 5.1 (00:00) 10 13.61 (00:40) 7.22 (00:40) 0 0 0 0 0
22-12-2019 16.6 (15:00) 12.1 (00:00) 14.4 20.28 (14:10) 11.67 (10:40) 0.2 0 0.2 0 0
21-12-2019 18.1 (13:20) 9.6 (00:00) 13.9 30.56 (22:20) 15.83 (22:30) 0.8 0.2 0.2 0.2 0.2
20-12-2019 17.6 (14:30) 10.8 (00:00) 14.2 9.72 (15:40) 5.28 (14:50) 10.6 5.4 4.2 0.6 0.4

Gráficas

Temp. máximas Temp. mínimas Temp. medias Precipitaciones Rachas de viento máximas Velocidades máximas media en intervalos de 10 minutos

Datos horarios

Fecha y hora oficial Temperatura (ºC) Velocidad del viento (km/h) Dirección del viento Racha (km/h) Dirección de racha Precipitación (mm) Presión (hPa) Tendencia (hPa) Humedad (%)
2020-01-18 23:00:00 7.9 7 Noroeste 9 Oeste 0 -- -- 87
2020-01-18 22:00:00 7.8 4 Noroeste 9 Noroeste 0 -- -- 86
2020-01-18 21:00:00 7.3 8 Noroeste 9 Noroeste 0 -- -- 87
2020-01-18 20:00:00 7 7 Noroeste 11 Sur 0 -- -- 85
2020-01-18 19:00:00 9.3 4 Oeste 17 Sudoeste 0 -- -- 76
2020-01-18 18:00:00 11.4 8 Sudoeste 13 Sudoeste 0 -- -- 66
2020-01-18 17:00:00 13.8 8 Sudoeste 17 Sudoeste 0 -- -- 52
2020-01-18 16:00:00 14.2 12 Sudoeste 26 Sudoeste 0 -- -- 49
2020-01-18 15:00:00 14.5 9 Sur 19 Sur 0 -- -- 44
2020-01-18 14:00:00 13.3 8 Sudeste 17 Sudeste 0 -- -- 54
2020-01-18 13:00:00 12.6 9 Sudeste 15 Sudeste 0 -- -- 67
2020-01-18 12:00:00 10.8 0 Calma 6 Nordeste 0 -- -- 74
2020-01-18 11:00:00 7 2 Norte 6 Norte 0 -- -- 85
2020-01-18 10:00:00 5.5 4 Sur 6 Sudeste 0 -- -- 94
2020-01-18 09:00:00 4.6 0 Calma 6 Este 0 -- -- 96
2020-01-18 08:00:00 4.6 0 Calma 11 Sudeste 0 -- -- 95
2020-01-18 07:00:00 4.9 4 Sur 10 Sudeste 0 -- -- 94
2020-01-18 06:00:00 5.1 4 Oeste 10 Noroeste 0 -- -- 94
2020-01-18 05:00:00 5.4 7 Sur 15 Sudeste 0 -- -- 90
2020-01-18 04:00:00 5.2 5 Noroeste 12 Oeste 0 -- -- 93
2020-01-18 03:00:00 5.6 5 Oeste 13 Noroeste 0 -- -- 89
2020-01-18 02:00:00 5.6 9 Noroeste 17 Noroeste 0 -- -- 86
2020-01-18 01:00:00 5.7 11 Noroeste 16 Noroeste 0 -- -- 85
2020-01-18 00:00:00 5.1 11 Noroeste 14 Noroeste 0 -- -- 85
2020-01-17 23:00:00 5.6 7 Noroeste 13 Noroeste 0 -- -- 81
2020-01-17 22:00:00 6.6 9 Noroeste 13 Oeste 0 -- -- 78
2020-01-17 21:00:00 9.7 12 Oeste 18 Oeste 0 -- -- 65
2020-01-17 20:00:00 11.6 4 Sur 32 Oeste 0 -- -- 57
2020-01-17 19:00:00 13.1 18 Oeste 35 Oeste 0 -- -- 54
2020-01-17 18:00:00 13.3 10 Oeste 33 Sudoeste 0 -- -- 55
2020-01-17 17:00:00 14.4 19 Oeste 50 Oeste 0 -- -- 55
2020-01-17 16:00:00 15.4 24 Oeste 46 Oeste 0 -- -- 49
2020-01-17 15:00:00 16.2 18 Oeste 39 Oeste 0 -- -- 51
2020-01-17 14:00:00 16.4 17 Oeste 40 Oeste 0 -- -- 51
2020-01-17 13:00:00 16.1 15 Sudoeste 35 Oeste 0 -- -- 52
2020-01-17 12:00:00 14.7 24 Oeste 40 Oeste 0 -- -- 58
2020-01-17 11:00:00 11.1 8 Este 13 Este 0 -- -- 84
2020-01-17 10:00:00 7 2 Nordeste 9 Sudoeste 0 -- -- 98
2020-01-17 09:00:00 4.7 5 Sudoeste 15 Sudeste 0 -- -- 100
2020-01-17 08:00:00 3.1 5 Noroeste 9 Sudeste 0 -- -- 99
2020-01-17 07:00:00 3.7 2 Oeste 5 Noroeste 0 -- -- 99
2020-01-17 06:00:00 3.4 3 Noroeste 10 Noroeste 0 -- -- 97
2020-01-17 05:00:00 3.9 5 Noroeste 12 Noroeste 0 -- -- 96
2020-01-17 04:00:00 4.8 3 Noroeste 17 Noroeste 0 -- -- 94
2020-01-17 03:00:00 4.4 8 Noroeste 16 Noroeste 0 -- -- 96
2020-01-17 02:00:00 5.8 8 Noroeste 14 Noroeste 0 -- -- 96
2020-01-17 01:00:00 4.9 7 Noroeste 13 Noroeste 0 -- -- 95
2020-01-17 00:00:00 5.3 9 Noroeste 12 Noroeste 0 -- -- 95
2020-01-16 23:00:00 5.3 9 Noroeste 12 Noroeste 0 -- -- 96
2020-01-16 22:00:00 5.8 7 Noroeste 12 Noroeste 0 -- -- 94
2020-01-16 21:00:00 6.3 9 Noroeste 12 Noroeste 0 -- -- 94
2020-01-16 20:00:00 7.1 8 Noroeste 10 Noroeste 0 -- -- 92
2020-01-16 19:00:00 7.8 8 Noroeste 9 Noroeste 0 -- -- 90
2020-01-16 18:00:00 10.9 4 Sudeste 10 Sudeste 0 -- -- 77
2020-01-16 17:00:00 14.3 8 Sudeste 17 Sudeste 0 -- -- 66
2020-01-16 16:00:00 15.2 11 Sudeste 17 Sur 0 -- -- 61
2020-01-16 15:00:00 15.1 13 Sudeste 19 Sudeste 0 -- -- 58
2020-01-16 14:00:00 14.2 10 Sudeste 17 Sudeste 0 -- -- 62
2020-01-16 13:00:00 12.1 5 Sudeste 9 Sudeste 0 -- -- 67
2020-01-16 12:00:00 10.2 3 Sur 8 Este 0 -- -- 69
2020-01-16 11:00:00 8.3 3 Sudeste 5 Este 0 -- -- 81
2020-01-16 10:00:00 4.3 0 Calma 3 Oeste 0 -- -- 98
2020-01-16 09:00:00 1.1 4 Noroeste 7 Noroeste 0 -- -- 99
2020-01-16 08:00:00 0.2 2 Noroeste 5 Norte 0 -- -- 96
2020-01-16 07:00:00 0.5 3 Noroeste 8 Noroeste 0 -- -- 97
2020-01-16 06:00:00 1.3 3 Noroeste 5 Noroeste 0 -- -- 97
2020-01-16 05:00:00 1.8 5 Noroeste 10 Oeste 0 -- -- 96
2020-01-16 04:00:00 2.3 3 Oeste 9 Noroeste 0 -- -- 94
2020-01-16 03:00:00 3.4 4 Noroeste 12 Noroeste 0 -- -- 90
2020-01-16 02:00:00 4.4 8 Noroeste 13 Noroeste 0 -- -- 88
2020-01-16 01:00:00 4.4 8 Noroeste 13 Noroeste 0 -- -- 85
2020-01-16 00:00:00 4.7 6 Noroeste 10 Noroeste 0 -- -- 88
2020-01-15 23:00:00 5.1 9 Noroeste 13 Noroeste 0 -- -- 85
2020-01-15 22:00:00 5.3 5 Noroeste 10 Noroeste 0 -- -- 83
2020-01-15 21:00:00 6.9 3 Nordeste 15 Oeste 0 -- -- 79
2020-01-15 20:00:00 8.2 10 Oeste 13 Noroeste 0 -- -- 75
2020-01-15 19:00:00 7.4 6 Noroeste 8 Noroeste 0 -- -- 81
2020-01-15 18:00:00 8.9 4 Norte 9 Noroeste 0 -- -- 80
2020-01-15 17:00:00 13.2 3 Nordeste 12 Sur 0 -- -- 64
2020-01-15 16:00:00 14.1 8 Sur 22 Sur 0 -- -- 56
2020-01-15 15:00:00 14.3 14 Sur 23 Sur 0 -- -- 55
2020-01-15 14:00:00 12.5 5 Este 9 Este 0 -- -- 65
2020-01-15 13:00:00 10 4 Este 9 Este 0 -- -- 76
2020-01-15 12:00:00 9 6 Sudeste 9 Sudeste 0 -- -- 84
2020-01-15 11:00:00 6 4 Sudeste 6 Sudeste 0 -- -- 96
2020-01-15 10:00:00 3 4 Sudeste 6 Sudeste 0 -- -- 100
2020-01-15 09:00:00 0.2 0 Calma 4 Noroeste 0 -- -- 100
2020-01-15 08:00:00 -0.4 0 Calma 4 Noroeste 0 -- -- 99
2020-01-15 07:00:00 -0.1 0 Calma 4 Este 0.2 -- -- 99
2020-01-15 06:00:00 0.5 4 Noroeste 8 Oeste 0 -- -- 99
2020-01-15 05:00:00 1.1 0 Calma 3 Oeste 0 -- -- 96
2020-01-15 04:00:00 2.4 3 Oeste 9 Noroeste 0 -- -- 95
2020-01-15 03:00:00 3.4 5 Noroeste 15 Noroeste 0 -- -- 95
2020-01-15 02:00:00 3.7 13 Noroeste 17 Noroeste 0 -- -- 93
2020-01-15 01:00:00 3.6 11 Noroeste 18 Noroeste 0 -- -- 93
2020-01-15 00:00:00 3.6 11 Noroeste 14 Noroeste 0 -- -- 92
2020-01-14 23:00:00 3.6 10 Noroeste 13 Noroeste 0 -- -- 90
2020-01-14 22:00:00 3.8 9 Noroeste 15 Noroeste 0 -- -- 88
2020-01-14 21:00:00 4.2 9 Noroeste 12 Noroeste 0 -- -- 86
2020-01-14 20:00:00 3.5 8 Noroeste 10 Noroeste 0 -- -- 89
2020-01-14 19:00:00 4.4 3 Noroeste 6 Sur 0 -- -- 86
2020-01-14 18:00:00 8.8 4 Sur 12 Sur 0 -- -- 70
2020-01-14 17:00:00 13.5 8 Sudeste 18 Sudeste 0 -- -- 51
2020-01-14 16:00:00 16.2 4 Sudeste 13 Sur 0 -- -- 43
2020-01-14 15:00:00 15 2 Oeste 14 Sudeste 0 -- -- 47
2020-01-14 14:00:00 13.7 10 Sudeste 14 Sudeste 0 -- -- 51
2020-01-14 13:00:00 11.5 3 Este 8 Este 0 -- -- 64
2020-01-14 12:00:00 9.1 5 Sudeste 8 Sudeste 0 -- -- 70
2020-01-14 11:00:00 6.5 6 Sudeste 8 Sudeste 0 -- -- 81
2020-01-14 10:00:00 3 0 Calma 5 Noroeste 0 -- -- 93
2020-01-14 09:00:00 -0.8 0 Calma 5 Oeste 0 -- -- 96
2020-01-14 08:00:00 -0.8 4 Noroeste 9 Noroeste 0 -- -- 94
2020-01-14 07:00:00 0 7 Noroeste 11 Noroeste 0 -- -- 93
2020-01-14 06:00:00 -0.3 5 Noroeste 10 Noroeste 0 -- -- 92
2020-01-14 05:00:00 -0.1 5 Noroeste 8 Noroeste 0 -- -- 93
2020-01-14 04:00:00 0.1 5 Noroeste 11 Noroeste 0.2 -- -- 92
2020-01-14 03:00:00 0.7 6 Noroeste 9 Noroeste 0 -- -- 91
2020-01-14 02:00:00 1.1 4 Noroeste 11 Norte 0 -- -- 88
2020-01-14 01:00:00 1.6 6 Noroeste 13 Noroeste 0 -- -- 89
2020-01-14 00:00:00 2.3 9 Noroeste 11 Noroeste 0 -- -- 89
2020-01-13 23:00:00 2.5 8 Noroeste 12 Noroeste 0 -- -- 91
2020-01-13 22:00:00 3.3 6 Noroeste 14 Noroeste 0 -- -- 90
2020-01-13 21:00:00 3.8 8 Noroeste 11 Noroeste 0 -- -- 91
2020-01-13 20:00:00 4.5 5 Noroeste 12 Noroeste 0 -- -- 87
2020-01-13 19:00:00 6.2 5 Noroeste 12 Noroeste 0 -- -- 86
2020-01-13 18:00:00 7.5 4 Noroeste 6 Sudoeste 0 -- -- 79
2020-01-13 17:00:00 10.8 5 Sudoeste 13 Sur 0 -- -- 59
2020-01-13 16:00:00 11.6 9 Sur 14 Sur 0 -- -- 55
2020-01-13 15:00:00 11.7 5 Sudeste 10 Sudeste 0 -- -- 57
2020-01-13 14:00:00 10.9 6 Este 10 Sudeste 0 -- -- 62
2020-01-13 13:00:00 9.5 3 Sudeste 6 Este 0 -- -- 65
2020-01-13 12:00:00 7.2 4 Sudeste 8 Sudeste 0 -- -- 70
2020-01-13 11:00:00 4.7 3 Sudeste 5 Sudeste 0 -- -- 83
2020-01-13 10:00:00 1.4 0 Calma 6 Noroeste 0 -- -- 99
2020-01-13 09:00:00 -1.3 4 Noroeste 6 Noroeste 0 -- -- 99
2020-01-13 08:00:00 -1.9 3 Noroeste 5 Noroeste 0 -- -- 99
2020-01-13 07:00:00 -1.8 2 Sudoeste 4 Nordeste 0 -- -- 99
2020-01-13 06:00:00 -1.7 4 Noroeste 6 Noroeste 0 -- -- 99
2020-01-13 05:00:00 -1.4 0 Calma 7 Oeste 0 -- -- 98
2020-01-13 04:00:00 -1.5 2 Noroeste 3 Noroeste 0 -- -- 97
2020-01-13 03:00:00 -0.5 2 Noroeste 8 Noroeste 0 -- -- 98
2020-01-13 02:00:00 -1 3 Noroeste 6 Noroeste 0 -- -- 97
2020-01-13 01:00:00 -0.6 3 Noroeste 8 Noroeste 0 -- -- 95
2020-01-13 00:00:00 0.4 5 Noroeste 8 Noroeste 0 -- -- 95
2020-01-12 23:00:00 1.1 2 Noroeste 9 Noroeste 0.2 -- -- 92
2020-01-12 22:00:00 1.9 6 Noroeste 10 Noroeste 0 -- -- 92
2020-01-12 21:00:00 3 6 Noroeste 9 Noroeste 0 -- -- 92
2020-01-12 20:00:00 3.5 2 Oeste 11 Noroeste 0 -- -- 89
2020-01-12 19:00:00 5.4 6 Noroeste 12 Noroeste 0 -- -- 84
2020-01-12 18:00:00 7.3 3 Norte 11 Noroeste 0 -- -- 78
2020-01-12 17:00:00 13.3 4 Sudeste 10 Este 0 -- -- 60
2020-01-12 16:00:00 13.6 8 Sudeste 12 Este 0 -- -- 55
2020-01-12 15:00:00 13.4 5 Sudeste 10 Sudeste 0 -- -- 56
2020-01-12 14:00:00 12.6 5 Sudeste 9 Sudeste 0 -- -- 60
2020-01-12 13:00:00 9.8 3 Sur 12 Sudeste 0.2 -- -- 75
2020-01-12 12:00:00 8 0 Calma 6 Este 0 -- -- 86
2020-01-12 11:00:00 5.4 0 Calma 4 Sudeste 0 -- -- 91
2020-01-12 10:00:00 2.5 0 Calma 5 Noroeste 0 -- -- 100
2020-01-12 09:00:00 -1.1 2 Noroeste 4 Noroeste 0 -- -- 100
2020-01-12 08:00:00 -1.7 2 Noroeste 5 Noroeste 0 -- -- 99
2020-01-12 07:00:00 -1.3 2 Noroeste 5 Noroeste 0 -- -- 100
2020-01-12 06:00:00 -1.4 2 Noroeste 5 Noroeste 0 -- -- 99
2020-01-12 05:00:00 -0.9 3 Noroeste 5 Noroeste 0 -- -- 99
2020-01-12 04:00:00 -0.8 3 Noroeste 6 Noroeste 0.2 -- -- 99
2020-01-12 03:00:00 -0.5 3 Noroeste 5 Noroeste 0 -- -- 99
2020-01-12 02:00:00 0.1 0 Calma 5 Noroeste 0 -- -- 98
2020-01-12 01:00:00 0.7 3 Noroeste 10 Noroeste 0 -- -- 97
2020-01-12 00:00:00 1.3 4 Noroeste 7 Noroeste 0 -- -- 97
2020-01-11 23:00:00 2.2 4 Noroeste 11 Oeste 0 -- -- 94
2020-01-11 22:00:00 2.7 7 Noroeste 11 Noroeste 0 -- -- 96
2020-01-11 21:00:00 3.8 5 Oeste 14 Noroeste 0 -- -- 92
2020-01-11 20:00:00 4.5 8 Noroeste 14 Noroeste 0 -- -- 91
2020-01-11 19:00:00 5.5 10 Noroeste 14 Noroeste 0.2 -- -- 90
2020-01-11 18:00:00 6.3 8 Noroeste 9 Noroeste 0 -- -- 88
2020-01-11 17:00:00 11.2 4 Sudeste 8 Sudeste 0 -- -- 69
2020-01-11 16:00:00 12 6 Sudeste 10 Este 0 -- -- 63
2020-01-11 15:00:00 11.9 4 Sudeste 11 Sudeste 0 -- -- 67
2020-01-11 14:00:00 11.6 2 Sur 8 Sudeste 0.2 -- -- 71
2020-01-11 13:00:00 10.2 4 Sudeste 8 Sudeste 0 -- -- 78
2020-01-11 12:00:00 8.4 4 Este 9 Este 0.2 -- -- 80
2020-01-11 11:00:00 6.4 4 Sudeste 6 Este 0 -- -- 98
2020-01-11 10:00:00 4.1 4 Sudeste 9 Sudoeste 0 -- -- 100
2020-01-11 09:00:00 0.9 3 Oeste 6 Noroeste 0.2 -- -- 100
2020-01-11 08:00:00 0.9 3 Noroeste 8 Noroeste 0 -- -- 100
2020-01-11 07:00:00 0.4 4 Noroeste 6 Noroeste 0 -- -- 100
2020-01-11 06:00:00 1.7 3 Noroeste 5 Noroeste 0.2 -- -- 100
2020-01-11 05:00:00 0.9 3 Nordeste 6 Sudoeste 0 -- -- 99
2020-01-11 04:00:00 1.2 2 Norte 5 Noroeste 0.2 -- -- 99
2020-01-11 03:00:00 1.8 3 Oeste 5 Noroeste 0 -- -- 99
2020-01-11 02:00:00 2 4 Noroeste 6 Norte 0.2 -- -- 98
2020-01-11 01:00:00 3 4 Noroeste 10 Noroeste 0 -- -- 96
2020-01-11 00:00:00 4.7 7 Noroeste 14 Noroeste 0.2 -- -- 93
2020-01-10 23:00:00 3.6 4 Noroeste 8 Oeste 0.2 -- -- 94
2020-01-10 22:00:00 5.4 5 Oeste 13 Noroeste 0 -- -- 90
2020-01-10 21:00:00 5.2 5 Noroeste 9 Noroeste 0.2 -- -- 93
2020-01-10 20:00:00 6 0 Calma 10 Sudoeste 0.2 -- -- 90
2020-01-10 19:00:00 7.6 7 Sudoeste 16 Oeste 0.4 -- -- 85
2020-01-10 18:00:00 9.1 13 Sudoeste 17 Sudoeste 0.2 -- -- 81
2020-01-10 17:00:00 11.8 9 Oeste 13 Oeste 0.4 -- -- 75
2020-01-10 16:00:00 12.7 4 Sudeste 7 Este 0.4 -- -- 77
2020-01-10 15:00:00 11.1 5 Sudeste 9 Sudeste 0.6 -- -- 85
2020-01-10 14:00:00 9.6 6 Sudeste 8 Sudeste 0.6 -- -- 94
2020-01-10 13:00:00 8.7 2 Este 21 Sudoeste 0.6 -- -- 96
2020-01-10 12:00:00 8.6 10 Sudoeste 19 Oeste 0.8 -- -- 91
2020-01-10 11:00:00 7.9 18 Noroeste 24 Noroeste 0.8 -- -- 94
2020-01-10 10:00:00 7.8 8 Noroeste 25 Norte 0.6 -- -- 94
2020-01-10 09:00:00 8 5 Noroeste 12 Noroeste 0.6 -- -- 98
2020-01-10 08:00:00 7.7 4 Noroeste 8 Oeste 0.6 -- -- 98
2020-01-10 07:00:00 7.9 6 Oeste 12 Norte 0.6 -- -- 94
2020-01-10 06:00:00 7.6 3 Oeste 9 Noroeste 0 -- -- 94
2020-01-10 05:00:00 7.2 5 Noroeste 10 Noroeste 0 -- -- 93
2020-01-10 04:00:00 6.9 5 Noroeste 10 Noroeste 0 -- -- 93
2020-01-10 03:00:00 6.4 5 Oeste 8 Oeste 0 -- -- 95
2020-01-10 02:00:00 6.2 5 Noroeste 10 Noroeste 0 -- -- 96
2020-01-10 01:00:00 5 8 Noroeste 11 Noroeste 0 -- -- 96
2020-01-10 00:00:00 4.9 5 Noroeste 8 Oeste 0 -- -- 95
2020-01-09 23:00:00 5 4 Oeste 9 Oeste 0 -- -- 96
2020-01-09 22:00:00 6.4 2 Noroeste 11 Sudoeste 0 -- -- 91
2020-01-09 21:00:00 8.3 4 Sudeste 17 Sur 0 -- -- 92
2020-01-09 20:00:00 9.5 10 Sudoeste 17 Sudoeste 0 -- -- 89
2020-01-09 19:00:00 8.5 6 Sudoeste 10 Sur 0 -- -- 89
2020-01-09 18:00:00 10.6 6 Sudoeste 11 Sudoeste 0 -- -- 79
2020-01-09 17:00:00 13.2 8 Sudoeste 18 Sur 0 -- -- 70
2020-01-09 16:00:00 14.3 11 Sur 20 Sur 0 -- -- 67
2020-01-09 15:00:00 13.9 12 Sur 21 Sur 0 -- -- 70
2020-01-09 14:00:00 13.6 10 Sur 21 Sur 0 -- -- 72
2020-01-09 13:00:00 11.5 8 Sudeste 10 Este 0 -- -- 80
2020-01-09 12:00:00 9.8 3 Sudeste 6 Sudeste 0 -- -- 90
2020-01-09 11:00:00 6 0 Calma 6 Este 0 -- -- 100
2020-01-09 10:00:00 2.9 2 Sur 9 Este 0 -- -- 100
2020-01-09 09:00:00 1.4 3 Noroeste 4 Noroeste 0 -- -- 100
2020-01-09 08:00:00 1.3 3 Sudeste 7 Noroeste 0 -- -- 100
2020-01-09 07:00:00 1.3 3 Noroeste 4 Noroeste 0 -- -- 100
2020-01-09 06:00:00 1.7 0 Calma 8 Noroeste 0 -- -- 100
2020-01-09 05:00:00 2.4 3 Noroeste 5 Noroeste 0 -- -- 99
2020-01-09 04:00:00 3.4 4 Noroeste 10 Oeste 0 -- -- 98
2020-01-09 03:00:00 3.6 6 Noroeste 13 Noroeste 0 -- -- 97
2020-01-09 02:00:00 5.4 10 Noroeste 14 Noroeste 0 -- -- 95
2020-01-09 01:00:00 5.2 8 Noroeste 11 Noroeste 0 -- -- 96
2020-01-09 00:00:00 5.8 6 Noroeste 11 Noroeste 0 -- -- 95
2020-01-08 23:00:00 6.2 9 Noroeste 12 Noroeste 0 -- -- 95
2020-01-08 22:00:00 5.9 5 Noroeste 15 Noroeste 0 -- -- 93
2020-01-08 21:00:00 7.1 5 Noroeste 13 Noroeste 0 -- -- 92
2020-01-08 20:00:00 7.8 10 Noroeste 15 Noroeste 0 -- -- 92
2020-01-08 19:00:00 8 9 Noroeste 13 Oeste 0 -- -- 92
2020-01-08 18:00:00 9.3 0 Calma 9 Sudeste 0 -- -- 86
2020-01-08 17:00:00 14 9 Sudeste 13 Sudeste 0 -- -- 70
2020-01-08 16:00:00 15.8 7 Sudeste 12 Sudeste 0 -- -- 61
2020-01-08 15:00:00 15.8 7 Sudeste 14 Sudeste 0 -- -- 60
2020-01-08 14:00:00 15.8 7 Sudeste 13 Este 0 -- -- 59
2020-01-08 13:00:00 13.7 2 Sur 8 Noroeste 0 -- -- 68
2020-01-08 12:00:00 10.7 3 Sudeste 7 Sudeste 0 -- -- 69
2020-01-08 11:00:00 8 5 Sudeste 14 Sudeste 0 -- -- 74
2020-01-08 10:00:00 5.3 4 Este 6 Este 0 -- -- 94
2020-01-08 09:00:00 1.1 0 Calma 4 Este 0 -- -- 98
2020-01-08 08:00:00 0.9 0 Calma 7 Noroeste 0 -- -- 95
2020-01-08 07:00:00 1.8 3 Norte 13 Noroeste 0 -- -- 90
2020-01-08 06:00:00 2.4 7 Noroeste 13 Noroeste 0 -- -- 91
2020-01-08 05:00:00 1.3 2 Sudeste 9 Noroeste 0 -- -- 92
2020-01-08 04:00:00 3.3 9 Noroeste 13 Noroeste 0 -- -- 87
2020-01-08 03:00:00 0.8 4 Noroeste 6 Oeste 0 -- -- 97
2020-01-08 02:00:00 1 3 Noroeste 4 Noroeste 0 -- -- 97
2020-01-08 01:00:00 2.1 2 Oeste 6 Noroeste 0 -- -- 97
2020-01-08 00:00:00 2.9 2 Noroeste 6 Sudoeste 0 -- -- 94
2020-01-07 23:00:00 4 0 Calma 4 Noroeste 0 -- -- 94
2020-01-07 22:00:00 4.8 4 Noroeste 9 Noroeste 0 -- -- 92
2020-01-07 21:00:00 4.7 3 Noroeste 6 Noroeste 0 -- -- 90
2020-01-07 20:00:00 6.7 5 Noroeste 12 Noroeste 0 -- -- 88
2020-01-07 19:00:00 6.8 8 Noroeste 10 Noroeste 0 -- -- 89
2020-01-07 18:00:00 7.8 5 Noroeste 7 Noroeste 0 -- -- 83
2020-01-07 17:00:00 13.3 3 Sudeste 10 Este 0 -- -- 63
2020-01-07 16:00:00 14.3 6 Este 11 Nordeste 0 -- -- 56
2020-01-07 15:00:00 15.2 6 Sudeste 11 Sudeste 0 -- -- 55
2020-01-07 14:00:00 13.6 5 Este 10 Sudeste 0 -- -- 63
2020-01-07 13:00:00 11.1 5 Sudeste 9 Sudeste 0 -- -- 78
2020-01-07 12:00:00 8.4 4 Sudeste 6 Sudeste 0 -- -- 89
2020-01-07 11:00:00 4.6 3 Sudeste 4 Sudeste 0 -- -- 100
2020-01-07 10:00:00 1.9 2 Sudeste 4 Sudeste 0 -- -- 100
2020-01-07 09:00:00 1.3 0 Calma 5 Noroeste 0 -- -- 100
2020-01-07 08:00:00 0.3 2 Noroeste 6 Sudeste 0 -- -- 100
2020-01-07 07:00:00 0.2 2 Noroeste 4 Noroeste 0 -- -- 100
2020-01-07 06:00:00 0.7 3 Oeste 6 Noroeste 0 -- -- 100
2020-01-07 05:00:00 0.9 2 Norte 6 Noroeste 0 -- -- 99
2020-01-07 04:00:00 1.7 0 Calma 5 Oeste 0 -- -- 100
2020-01-07 03:00:00 2 0 Calma 5 Sur 0 -- -- 97
2020-01-07 02:00:00 2.8 3 Noroeste 6 Oeste 0 -- -- 96
2020-01-07 01:00:00 4.4 4 Sudeste 15 Noroeste 0 -- -- 93
2020-01-07 00:00:00 5.1 11 Noroeste 18 Noroeste 0 -- -- 93
2020-01-06 23:00:00 5.5 12 Noroeste 15 Noroeste 0 -- -- 93
2020-01-06 22:00:00 5.7 10 Noroeste 16 Noroeste 0 -- -- 90
2020-01-06 21:00:00 5.7 10 Noroeste 15 Noroeste 0 -- -- 92
2020-01-06 20:00:00 6.2 11 Noroeste 14 Noroeste 0 -- -- 91
2020-01-06 19:00:00 6.6 9 Noroeste 11 Noroeste 0 -- -- 91
2020-01-06 18:00:00 8.1 6 Noroeste 9 Oeste 0 -- -- 85
2020-01-06 17:00:00 14 2 Sudeste 7 Sudeste 0 -- -- 62
2020-01-06 16:00:00 14.7 4 Sudeste 10 Sur 0 -- -- 61
2020-01-06 15:00:00 14.5 4 Sudeste 11 Sudeste 0 -- -- 63
2020-01-06 14:00:00 14 7 Sudeste 10 Este 0 -- -- 65
2020-01-06 13:00:00 12.4 4 Este 7 Sudeste 0 -- -- 68
2020-01-06 12:00:00 9.7 4 Este 7 Este 0 -- -- 74
2020-01-06 11:00:00 7.4 4 Sudeste 8 Este 0 -- -- 81
2020-01-06 10:00:00 4.3 0 Calma 5 Norte 0 -- -- 95